createdAt,value
2018-07-16T00:01:58.427Z,37.70
2018-07-16T00:04:29.484Z,39.20
2018-07-16T00:07:00.544Z,39.80
2018-07-16T00:09:31.612Z,41.50
2018-07-16T00:12:02.922Z,42.50
2018-07-16T00:14:34.016Z,45.30
2018-07-16T00:17:05.182Z,46.30
2018-07-16T00:19:36.245Z,46.50
2018-07-16T00:22:07.407Z,47.30
2018-07-16T00:24:38.771Z,47.90
2018-07-16T00:27:10.066Z,48.10
2018-07-16T00:29:41.159Z,49.20
2018-07-16T00:32:12.480Z,50.20
2018-07-16T00:34:43.549Z,51.30
2018-07-16T00:37:14.785Z,51.70
2018-07-16T00:39:46.127Z,52.00
2018-07-16T00:42:18.291Z,52.30
2018-07-16T00:44:49.434Z,53.00
2018-07-16T00:47:20.558Z,51.90
2018-07-16T00:49:51.647Z,53.20
2018-07-16T00:52:22.669Z,52.70
2018-07-16T00:54:53.692Z,52.50
2018-07-16T00:57:24.669Z,52.80
2018-07-16T00:59:55.677Z,53.10
2018-07-16T01:02:26.770Z,53.30
2018-07-16T01:04:57.815Z,53.70
2018-07-16T01:07:29.648Z,53.90
2018-07-16T01:10:00.844Z,54.30
2018-07-16T01:12:31.915Z,54.60
2018-07-16T01:15:02.943Z,53.40
2018-07-16T01:17:33.934Z,54.10
2018-07-16T01:20:05.019Z,54.30
2018-07-16T01:22:36.213Z,55.30
2018-07-16T01:25:07.460Z,55.90
2018-07-16T01:27:38.646Z,56.30
2018-07-16T01:30:09.800Z,57.60
2018-07-16T01:32:40.895Z,58.30
2018-07-16T01:35:12.140Z,59.20
2018-07-16T01:37:43.130Z,59.90
2018-07-16T01:40:14.143Z,60.60
2018-07-16T01:42:46.863Z,61.30
2018-07-16T01:45:18.711Z,61.20
2018-07-16T01:47:50.146Z,61.70
2018-07-16T01:50:22.488Z,63.20
2018-07-16T01:52:54.129Z,63.50
2018-07-16T01:55:26.057Z,64.10
2018-07-16T01:57:58.264Z,65.10
2018-07-16T02:00:32.338Z,65.60
2018-07-16T02:03:03.679Z,65.40
2018-07-16T02:05:35.406Z,66.30
2018-07-16T02:08:07.395Z,69.80
2018-07-16T02:10:38.680Z,68.10
2018-07-16T02:13:10.165Z,74.90
2018-07-16T02:15:42.907Z,80.60
2018-07-16T02:18:15.315Z,82.90
2018-07-16T02:20:47.588Z,84.10
2018-07-16T02:23:18.914Z,85.00
2018-07-16T02:25:55.197Z,84.90
2018-07-16T02:28:27.698Z,84.60
2018-07-16T02:30:58.949Z,85.50
2018-07-16T02:36:00.241Z,87.50
2018-07-16T02:38:31.440Z,87.60
2018-07-16T02:41:02.676Z,87.90
2018-07-16T02:43:34.060Z,88.60
2018-07-16T02:46:05.401Z,88.50
2018-07-16T02:48:36.624Z,88.00
2018-07-16T02:51:07.916Z,89.00
2018-07-16T02:53:39.253Z,90.10
2018-07-16T02:56:10.426Z,90.60
2018-07-16T02:58:41.624Z,91.70
2018-07-16T03:01:13.933Z,92.40
2018-07-16T03:03:45.078Z,93.00
2018-07-16T03:06:16.325Z,93.40
2018-07-16T03:08:47.488Z,93.90
2018-07-16T03:11:18.528Z,93.80
2018-07-16T03:13:49.497Z,93.90
2018-07-16T03:16:20.639Z,93.70
2018-07-16T03:18:51.648Z,93.80
2018-07-16T03:21:23.425Z,94.30
2018-07-16T03:23:54.773Z,95.00
2018-07-16T03:26:25.813Z,95.10
2018-07-16T03:28:57.055Z,95.10
2018-07-16T03:31:28.275Z,95.60
2018-07-16T03:33:59.588Z,95.70
2018-07-16T03:36:30.846Z,95.40
2018-07-16T03:41:31.902Z,95.90
2018-07-16T03:44:03.049Z,96.20
2018-07-16T03:46:34.178Z,96.60
2018-07-16T03:49:05.386Z,96.70
2018-07-16T03:51:36.460Z,97.00
2018-07-16T03:54:07.660Z,97.10
2018-07-16T03:56:38.862Z,97.30
2018-07-16T03:59:10.215Z,97.40
2018-07-16T04:01:41.605Z,97.50
2018-07-16T04:04:12.968Z,97.50
2018-07-16T04:06:43.975Z,97.40
2018-07-16T04:09:15.532Z,97.70
2018-07-16T04:11:46.591Z,97.80
2018-07-16T04:14:17.652Z,98.10
2018-07-16T04:16:48.941Z,98.40
2018-07-16T04:19:20.220Z,98.50
2018-07-16T04:21:51.474Z,98.70
2018-07-16T04:24:22.715Z,98.30
2018-07-16T04:26:53.882Z,97.90
2018-07-16T04:29:24.996Z,97.80
2018-07-16T04:31:56.340Z,97.90
2018-07-16T04:34:27.652Z,97.70
2018-07-16T04:36:58.948Z,97.40
2018-07-16T04:39:30.215Z,97.80
2018-07-16T04:42:01.320Z,97.40
2018-07-16T04:44:32.672Z,96.70
2018-07-16T04:47:03.959Z,96.60
2018-07-16T04:49:35.136Z,95.80
2018-07-16T04:52:06.400Z,96.10
2018-07-16T04:54:37.460Z,96.80
2018-07-16T04:57:08.732Z,96.90
2018-07-16T04:59:39.950Z,97.10
2018-07-16T05:02:11.279Z,97.40
2018-07-16T05:04:42.442Z,97.70
2018-07-16T05:07:13.768Z,98.10
2018-07-16T05:09:44.935Z,98.70
2018-07-16T05:12:16.187Z,98.70
2018-07-16T05:14:47.523Z,99.00
2018-07-16T05:17:18.822Z,99.50
2018-07-16T05:19:49.927Z,99.90
2018-07-16T05:22:21.189Z,99.90
2018-07-16T05:24:52.434Z,99.90
2018-07-16T05:27:23.590Z,99.90
2018-07-16T05:29:54.685Z,99.90
2018-07-16T05:32:26.044Z,99.90
2018-07-16T05:34:57.138Z,99.90
2018-07-16T05:37:28.245Z,99.90
2018-07-16T05:39:59.321Z,99.90
2018-07-16T05:42:30.616Z,99.90
2018-07-16T05:45:01.761Z,99.90
2018-07-16T05:47:32.846Z,99.90
2018-07-16T05:50:03.991Z,99.90
2018-07-16T05:52:35.383Z,99.90
2018-07-16T05:55:06.538Z,99.90
2018-07-16T05:57:37.832Z,99.90
2018-07-16T06:00:09.040Z,99.90
2018-07-16T06:02:40.200Z,99.90
2018-07-16T06:05:11.479Z,99.90
2018-07-16T06:07:42.766Z,99.90
2018-07-16T06:10:14.054Z,99.90
2018-07-16T06:17:45.560Z,99.90
2018-07-16T06:20:16.764Z,99.90
2018-07-16T06:22:47.892Z,99.90
2018-07-16T06:25:19.072Z,99.90
2018-07-16T06:30:20.313Z,99.90
2018-07-16T06:32:51.516Z,99.90
2018-07-16T06:35:22.731Z,99.90
2018-07-16T06:37:54.008Z,99.90
2018-07-16T06:40:25.314Z,99.90
2018-07-16T06:42:56.339Z,99.90
2018-07-16T06:45:27.440Z,99.90
2018-07-16T06:47:58.596Z,99.90
2018-07-16T06:50:29.807Z,99.90
2018-07-16T06:53:01.006Z,99.90
2018-07-16T06:55:32.277Z,99.90
2018-07-16T06:58:03.557Z,99.90
2018-07-16T07:00:34.683Z,99.90
2018-07-16T07:03:05.795Z,99.90
2018-07-16T07:05:36.947Z,99.90
2018-07-16T07:08:08.243Z,99.90
2018-07-16T07:10:39.474Z,99.90
2018-07-16T07:13:10.876Z,99.90
2018-07-16T07:15:42.244Z,99.90
2018-07-16T07:18:13.587Z,99.90
2018-07-16T07:20:44.811Z,99.50
2018-07-16T07:23:16.049Z,99.30
2018-07-16T07:25:47.345Z,99.40
2018-07-16T07:28:18.696Z,99.40
2018-07-16T07:30:49.862Z,99.20
2018-07-16T07:33:20.932Z,98.70
2018-07-16T07:35:52.129Z,97.90
2018-07-16T07:38:23.255Z,98.10
2018-07-16T07:40:54.476Z,98.30
2018-07-16T07:43:25.727Z,98.00
2018-07-16T07:45:56.867Z,97.40
2018-07-16T07:48:28.084Z,97.00
2018-07-16T07:50:59.232Z,96.30
2018-07-16T07:53:30.428Z,96.70
2018-07-16T07:56:01.693Z,96.30
2018-07-16T07:58:32.931Z,96.50
2018-07-16T08:01:04.123Z,96.60
2018-07-16T08:03:35.523Z,96.20
2018-07-16T08:06:06.746Z,95.20
2018-07-16T08:08:39.129Z,94.40
2018-07-16T08:11:10.630Z,94.10
2018-07-16T08:13:41.825Z,94.10
2018-07-16T08:16:13.224Z,93.80
2018-07-16T08:18:44.653Z,93.50
2018-07-16T08:21:16.022Z,93.30
2018-07-16T08:23:47.227Z,93.30
2018-07-16T08:26:18.332Z,92.30
2018-07-16T08:28:49.646Z,92.50
2018-07-16T08:31:21.102Z,92.60
2018-07-16T08:33:52.456Z,92.70
2018-07-16T08:36:23.760Z,92.60
2018-07-16T08:38:55.144Z,92.90
2018-07-16T08:41:26.381Z,93.00
2018-07-16T08:43:57.659Z,93.60
2018-07-16T08:46:28.947Z,93.70
2018-07-16T08:49:00.472Z,93.80
2018-07-16T08:51:32.076Z,94.00
2018-07-16T08:54:03.279Z,94.30
2018-07-16T08:56:34.532Z,94.50
2018-07-16T08:59:06.303Z,94.70
2018-07-16T09:01:37.487Z,94.90
2018-07-16T09:04:09.056Z,94.90
2018-07-16T09:06:40.317Z,94.70
2018-07-16T09:09:11.498Z,94.40
2018-07-16T09:11:42.614Z,94.40
2018-07-16T09:14:13.839Z,94.40
2018-07-16T09:16:45.227Z,94.80
2018-07-16T09:19:16.626Z,94.80
2018-07-16T09:24:18.061Z,94.70
2018-07-16T09:26:49.453Z,94.80
2018-07-16T09:29:20.680Z,94.90
2018-07-16T09:31:51.855Z,94.80
2018-07-16T09:34:23.098Z,94.60
2018-07-16T09:36:54.275Z,94.50
2018-07-16T09:41:55.505Z,94.90
2018-07-16T09:44:26.762Z,94.90
2018-07-16T09:46:58.005Z,95.00
2018-07-16T09:49:29.170Z,94.90
2018-07-16T09:52:00.245Z,95.10
2018-07-16T09:54:31.402Z,96.20
2018-07-16T09:57:02.563Z,96.70
2018-07-16T09:59:33.736Z,96.80
2018-07-16T10:02:09.585Z,97.00
2018-07-16T10:04:40.779Z,97.20
2018-07-16T10:07:11.930Z,97.10
2018-07-16T10:09:43.137Z,97.10
2018-07-16T10:12:14.254Z,96.90
2018-07-16T10:14:45.358Z,96.90
2018-07-16T10:17:16.611Z,96.80
2018-07-16T10:19:47.852Z,96.60
2018-07-16T10:22:18.845Z,96.50
2018-07-16T10:24:50.017Z,96.30
2018-07-16T10:27:21.291Z,96.10
2018-07-16T10:29:52.708Z,95.50
2018-07-16T10:32:23.873Z,94.90
2018-07-16T10:34:55.005Z,94.40
2018-07-16T10:37:26.513Z,94.30
2018-07-16T10:39:57.733Z,93.60
2018-07-16T10:42:29.099Z,93.80
2018-07-16T10:45:00.241Z,93.70
2018-07-16T10:47:31.333Z,93.70
2018-07-16T10:50:02.484Z,93.70
2018-07-16T10:52:33.561Z,93.60
2018-07-16T10:55:05.221Z,93.70
2018-07-16T11:00:06.808Z,93.90
2018-07-16T11:02:38.072Z,93.90
2018-07-16T11:05:09.332Z,94.50
2018-07-16T11:07:40.718Z,94.10
2018-07-16T11:10:11.862Z,94.00
2018-07-16T11:12:43.198Z,94.30
2018-07-16T11:15:14.385Z,94.00
2018-07-16T11:17:45.816Z,94.10
2018-07-16T11:20:17.004Z,94.00
2018-07-16T11:22:48.240Z,94.60
2018-07-16T11:25:19.424Z,94.20
2018-07-16T11:27:50.672Z,94.30
2018-07-16T11:30:21.885Z,94.20
2018-07-16T11:32:53.262Z,94.10
2018-07-16T11:35:24.660Z,94.10
2018-07-16T11:37:56.435Z,94.10
2018-07-16T11:40:27.548Z,94.10
2018-07-16T11:42:58.616Z,94.10
2018-07-16T11:47:59.938Z,93.90
2018-07-16T11:50:31.271Z,93.90
2018-07-16T11:53:02.349Z,93.50
2018-07-16T11:55:33.641Z,93.30
2018-07-16T11:58:04.723Z,93.10
2018-07-16T12:00:35.789Z,92.70
2018-07-16T12:03:07.199Z,92.40
2018-07-16T12:05:38.385Z,92.30
2018-07-16T12:08:09.635Z,92.60
2018-07-16T12:10:40.861Z,92.40
2018-07-16T12:13:11.939Z,92.10
2018-07-16T12:15:43.063Z,91.60
2018-07-16T12:18:14.503Z,91.10
2018-07-16T12:20:45.776Z,90.40
2018-07-16T12:23:17.092Z,89.80
2018-07-16T12:25:48.198Z,90.00
2018-07-16T12:28:19.208Z,90.40
2018-07-16T12:30:50.309Z,90.70
2018-07-16T12:33:21.424Z,90.60
2018-07-16T12:35:52.519Z,90.50
2018-07-16T12:38:23.649Z,90.30
2018-07-16T12:40:54.694Z,89.00
2018-07-16T12:43:25.770Z,87.00
2018-07-16T12:45:56.837Z,84.90
2018-07-16T12:48:27.992Z,84.20
2018-07-16T12:50:59.097Z,82.30
2018-07-16T12:53:30.392Z,81.40
2018-07-16T12:56:01.481Z,82.50
2018-07-16T12:58:32.718Z,79.90
2018-07-16T13:01:04.015Z,79.20
2018-07-16T13:03:36.081Z,78.80
2018-07-16T13:06:07.309Z,79.40
2018-07-16T13:08:38.406Z,79.00
2018-07-16T13:11:09.689Z,78.60
2018-07-16T13:13:40.789Z,79.40
2018-07-16T13:16:11.971Z,76.90
2018-07-16T13:18:43.392Z,75.90
2018-07-16T13:21:14.426Z,75.40
2018-07-16T13:23:45.549Z,74.60
2018-07-16T13:26:16.632Z,74.60
2018-07-16T13:31:17.922Z,71.00
2018-07-16T13:33:49.146Z,72.50
2018-07-16T13:36:21.821Z,70.40
2018-07-16T13:38:53.972Z,70.80
2018-07-16T13:41:25.216Z,71.70
2018-07-16T13:43:56.328Z,73.30
2018-07-16T13:46:27.539Z,71.60
2018-07-16T13:48:59.542Z,70.30
2018-07-16T13:51:30.903Z,70.90
2018-07-16T13:54:02.715Z,71.00
2018-07-16T13:56:34.242Z,69.50
2018-07-16T13:59:05.381Z,70.30
2018-07-16T14:04:07.555Z,67.90
2018-07-16T14:06:38.762Z,68.20
2018-07-16T14:09:10.642Z,68.20
2018-07-16T14:11:42.540Z,67.50
2018-07-16T14:14:13.810Z,66.70
2018-07-16T14:16:44.778Z,66.30
2018-07-16T14:19:15.835Z,64.90
2018-07-16T14:21:46.930Z,63.50
2018-07-16T14:24:18.066Z,65.80
2018-07-16T14:26:49.096Z,62.70
2018-07-16T14:29:20.189Z,63.20
2018-07-16T14:31:51.435Z,62.80
2018-07-16T14:34:22.451Z,62.10
2018-07-16T14:36:53.460Z,62.20
2018-07-16T14:39:24.692Z,60.60
2018-07-16T14:41:55.717Z,60.60
2018-07-16T14:44:27.114Z,62.80
2018-07-16T14:46:58.339Z,58.80
2018-07-16T14:49:29.427Z,59.60
2018-07-16T14:52:00.768Z,59.90
2018-07-16T14:54:32.056Z,58.50
2018-07-16T14:59:33.660Z,60.80
2018-07-16T15:02:05.029Z,59.20
2018-07-16T15:04:36.385Z,57.10
2018-07-16T15:07:07.845Z,57.70
2018-07-16T15:09:39.424Z,55.80
2018-07-16T15:12:10.968Z,56.90
2018-07-16T15:14:42.121Z,55.10
2018-07-16T15:19:44.211Z,56.00
2018-07-16T15:22:15.389Z,52.80
2018-07-16T15:24:46.919Z,52.70
2018-07-16T15:27:17.999Z,55.60
2018-07-16T15:29:49.156Z,56.50
2018-07-16T15:32:20.230Z,54.00
2018-07-16T15:34:51.317Z,53.40
2018-07-16T15:37:22.514Z,54.90
2018-07-16T15:39:53.819Z,52.40
2018-07-16T15:42:24.979Z,53.60
2018-07-16T15:44:56.230Z,54.40
2018-07-16T15:47:27.252Z,53.30
2018-07-16T15:49:58.323Z,54.60
2018-07-16T15:52:29.235Z,52.30
2018-07-16T15:55:00.419Z,53.70
2018-07-16T15:57:31.634Z,51.90
2018-07-16T16:00:02.841Z,53.40
2018-07-16T16:02:34.035Z,52.10
2018-07-16T16:05:05.248Z,52.20
2018-07-16T16:07:36.366Z,52.40
2018-07-16T16:10:07.447Z,51.00
2018-07-16T16:12:38.420Z,51.60
2018-07-16T16:15:09.430Z,50.30
2018-07-16T16:17:40.476Z,50.10
2018-07-16T16:20:11.894Z,50.30
2018-07-16T16:22:43.083Z,48.60
2018-07-16T16:25:14.309Z,50.40
2018-07-16T16:27:46.003Z,47.30
2018-07-16T16:30:17.039Z,48.90
2018-07-16T16:36:19.280Z,48.30
2018-07-16T16:38:50.438Z,49.30
2018-07-16T16:41:22.410Z,49.20
2018-07-16T16:43:53.545Z,48.70
2018-07-16T16:46:24.999Z,50.60
2018-07-16T16:48:55.963Z,49.30
2018-07-16T16:51:26.978Z,47.80
2018-07-16T16:53:58.215Z,48.20
2018-07-16T16:56:29.479Z,47.60
2018-07-16T16:59:00.785Z,46.40
2018-07-16T17:01:32.483Z,46.90
2018-07-16T17:04:03.713Z,47.30
2018-07-16T17:06:34.765Z,47.40
2018-07-16T17:09:06.979Z,46.10
2018-07-16T17:11:37.947Z,45.90
2018-07-16T17:14:09.011Z,46.50
2018-07-16T17:16:39.967Z,44.80
2018-07-16T17:19:11.108Z,45.50
2018-07-16T17:21:42.424Z,44.20
2018-07-16T17:24:13.672Z,44.30
2018-07-16T17:26:44.914Z,44.30
2018-07-16T17:29:15.988Z,43.30
2018-07-16T17:31:47.375Z,44.80
2018-07-16T17:34:18.813Z,39.60
2018-07-16T17:39:21.265Z,38.40
2018-07-16T17:41:52.417Z,38.50
2018-07-16T17:44:23.568Z,38.20
2018-07-16T17:46:54.764Z,39.00
2018-07-16T17:49:25.972Z,40.90
2018-07-16T17:51:57.280Z,41.30
2018-07-16T17:54:28.567Z,41.00
2018-07-16T17:56:59.790Z,39.30
2018-07-16T17:59:31.041Z,38.50
2018-07-16T18:02:03.229Z,38.70
2018-07-16T18:04:34.581Z,38.70
2018-07-16T18:07:05.748Z,40.10
2018-07-16T18:09:37.182Z,40.30
2018-07-16T18:12:08.360Z,37.90
2018-07-16T18:14:39.524Z,36.60
2018-07-16T18:17:10.658Z,37.90
2018-07-16T18:19:41.844Z,33.80
2018-07-16T18:22:13.112Z,35.60
2018-07-16T18:24:44.312Z,35.30
2018-07-16T18:27:16.489Z,35.00
2018-07-16T18:29:48.108Z,35.20
2018-07-16T18:32:19.300Z,34.60
2018-07-16T18:34:50.803Z,34.00
2018-07-16T18:37:23.223Z,36.00
2018-07-16T18:39:54.742Z,37.10
2018-07-16T18:42:25.992Z,38.30
2018-07-16T18:44:57.347Z,39.00
2018-07-16T18:47:28.763Z,38.50
2018-07-16T18:50:00.013Z,40.10
2018-07-16T18:52:31.282Z,39.90
2018-07-16T18:55:02.557Z,40.10
2018-07-16T18:57:33.717Z,39.40
2018-07-16T19:00:05.401Z,39.80
2018-07-16T19:02:36.714Z,38.50
2018-07-16T19:05:08.658Z,39.70
2018-07-16T19:07:40.120Z,37.60
2018-07-16T19:10:11.408Z,40.50
2018-07-16T19:12:43.491Z,42.60
2018-07-16T19:15:19.502Z,42.10
2018-07-16T19:20:20.771Z,40.90
2018-07-16T19:22:52.119Z,41.10
2018-07-16T19:25:23.209Z,40.80
2018-07-16T19:27:54.477Z,41.30
2018-07-16T19:30:25.993Z,39.80
2018-07-16T19:32:57.413Z,40.80
2018-07-16T19:35:28.600Z,42.40
2018-07-16T19:37:59.687Z,41.70
2018-07-16T19:40:31.017Z,43.40
2018-07-16T19:43:02.254Z,43.80
2018-07-16T19:45:33.533Z,44.90
2018-07-16T19:48:04.694Z,43.40
2018-07-16T19:50:35.831Z,44.50
2018-07-16T19:53:07.361Z,45.70
2018-07-16T19:55:39.322Z,45.80
2018-07-16T19:58:10.598Z,45.70
2018-07-16T20:00:41.956Z,45.50
2018-07-16T20:03:13.396Z,44.10
2018-07-16T20:05:44.661Z,43.40
2018-07-16T20:08:17.745Z,42.90
2018-07-16T20:10:49.027Z,43.40
2018-07-16T20:13:20.577Z,43.60
2018-07-16T20:15:52.756Z,44.10
2018-07-16T20:18:24.235Z,45.30
2018-07-16T20:21:01.016Z,45.50
2018-07-16T20:23:32.504Z,42.50
2018-07-16T20:26:03.780Z,43.60
2018-07-16T20:28:35.059Z,44.20
2018-07-16T20:31:06.396Z,44.20
2018-07-16T20:33:38.279Z,45.50
2018-07-16T20:36:11.122Z,46.20
2018-07-16T20:38:42.331Z,48.30
2018-07-16T20:41:13.418Z,47.90
2018-07-16T20:43:44.681Z,48.20
2018-07-16T20:48:46.408Z,49.00
2018-07-16T20:51:17.590Z,48.80
2018-07-16T20:53:49.892Z,48.80
2018-07-16T20:56:21.306Z,49.90
2018-07-16T20:58:52.699Z,49.70
2018-07-16T21:01:23.803Z,50.00
2018-07-16T21:06:25.361Z,50.20
2018-07-16T21:08:56.613Z,50.10
2018-07-16T21:11:28.045Z,50.90
2018-07-16T21:13:59.507Z,51.10
2018-07-16T21:16:30.832Z,51.70
2018-07-16T21:19:02.124Z,51.80
2018-07-16T21:21:33.574Z,52.10
2018-07-16T21:24:04.995Z,53.20
2018-07-16T21:26:36.229Z,53.80
2018-07-16T21:29:07.742Z,53.90
2018-07-16T21:31:39.688Z,53.20
2018-07-16T21:34:10.776Z,53.50
2018-07-16T21:36:42.178Z,54.00
2018-07-16T21:39:13.334Z,54.20
2018-07-16T21:41:44.454Z,54.40
2018-07-16T21:44:15.704Z,54.70
2018-07-16T21:46:46.929Z,55.30
2018-07-16T21:49:18.324Z,53.60
2018-07-16T21:51:49.463Z,53.30
2018-07-16T21:54:20.646Z,53.50
2018-07-16T21:56:52.662Z,53.40
2018-07-16T21:59:24.052Z,53.10
2018-07-16T22:01:55.323Z,52.90
2018-07-16T22:04:26.682Z,54.30
2018-07-16T22:06:57.843Z,55.20
2018-07-16T22:09:29.542Z,54.20
2018-07-16T22:12:00.761Z,55.10
2018-07-16T22:14:31.998Z,56.30
2018-07-16T22:17:03.495Z,55.90
2018-07-16T22:19:34.761Z,57.50
2018-07-16T22:22:06.085Z,58.10
2018-07-16T22:24:37.568Z,56.60
2018-07-16T22:27:08.999Z,57.30
2018-07-16T22:29:40.382Z,57.00
2018-07-16T22:32:11.586Z,57.30
2018-07-16T22:34:42.823Z,57.50
2018-07-16T22:37:14.199Z,56.70
2018-07-16T22:39:45.474Z,57.00
2018-07-16T22:42:16.788Z,57.90
2018-07-16T22:44:48.141Z,57.30
2018-07-16T22:47:19.334Z,58.10
2018-07-16T22:49:50.633Z,57.80
2018-07-16T22:52:21.971Z,58.20
2018-07-16T22:54:53.225Z,58.30
2018-07-16T22:57:24.571Z,58.60
2018-07-16T22:59:55.916Z,59.00
2018-07-16T23:02:27.236Z,58.90
2018-07-16T23:04:58.607Z,59.30
2018-07-16T23:07:29.813Z,58.90
2018-07-16T23:10:01.170Z,60.10
2018-07-16T23:12:32.583Z,59.70
2018-07-16T23:15:03.864Z,60.00
2018-07-16T23:17:35.174Z,60.30
2018-07-16T23:20:06.565Z,59.80
2018-07-16T23:22:46.753Z,60.00
2018-07-16T23:25:17.980Z,60.90
2018-07-16T23:27:49.694Z,61.30
2018-07-16T23:30:20.952Z,62.30
2018-07-16T23:32:52.303Z,62.90
2018-07-16T23:35:23.674Z,64.00
2018-07-16T23:37:54.876Z,64.90
2018-07-16T23:40:26.037Z,65.20
2018-07-16T23:42:57.273Z,65.20
2018-07-16T23:45:28.542Z,65.40
2018-07-16T23:47:59.712Z,65.90
2018-07-16T23:50:30.944Z,66.40
2018-07-16T23:53:02.081Z,67.00
2018-07-16T23:55:33.221Z,67.30
2018-07-16T23:58:04.314Z,68.10
